createdAt,value
2019-02-11T00:01:54.083Z,4.42
2019-02-11T00:07:59.983Z,4.46
2019-02-11T00:14:05.819Z,4.51
2019-02-11T00:20:11.744Z,4.52
2019-02-11T00:26:17.598Z,4.60
2019-02-11T00:32:26.482Z,4.66
2019-02-11T00:38:32.345Z,4.70
2019-02-11T00:44:38.535Z,4.76
2019-02-11T00:50:44.265Z,4.78
2019-02-11T00:56:49.996Z,4.82
2019-02-11T01:02:56.124Z,4.88
2019-02-11T01:09:01.946Z,4.89
2019-02-11T01:15:08.752Z,4.92
2019-02-11T01:21:15.020Z,4.94
2019-02-11T01:27:20.988Z,4.97
2019-02-11T01:33:26.859Z,4.94
2019-02-11T01:39:32.620Z,5.05
2019-02-11T01:45:38.523Z,5.09
2019-02-11T01:51:44.605Z,5.06
2019-02-11T01:57:50.385Z,5.11
2019-02-11T02:03:56.190Z,5.10
2019-02-11T02:10:02.083Z,5.13
2019-02-11T02:16:08.000Z,5.18
2019-02-11T02:22:13.836Z,5.20
2019-02-11T02:28:19.777Z,5.21
2019-02-11T02:34:26.186Z,5.22
2019-02-11T02:40:32.095Z,5.16
2019-02-11T02:46:37.918Z,5.11
2019-02-11T02:52:43.758Z,5.13
2019-02-11T02:58:49.792Z,5.19
2019-02-11T03:04:55.921Z,5.20
2019-02-11T03:11:01.778Z,5.20
2019-02-11T03:17:07.685Z,5.20
2019-02-11T03:23:13.445Z,5.16
2019-02-11T03:29:19.198Z,5.12
2019-02-11T03:35:24.985Z,5.08
2019-02-11T03:41:31.227Z,5.12
2019-02-11T03:47:37.475Z,5.10
2019-02-11T03:53:43.327Z,5.17
2019-02-11T03:59:49.514Z,5.19
2019-02-11T04:05:55.391Z,5.22
2019-02-11T04:12:01.325Z,5.28
2019-02-11T04:18:07.123Z,5.29
2019-02-11T04:24:13.234Z,5.27
2019-02-11T04:30:20.033Z,5.25
2019-02-11T04:36:25.738Z,5.21
2019-02-11T04:42:31.873Z,5.28
2019-02-11T04:48:37.927Z,5.24
2019-02-11T04:54:44.100Z,5.24
2019-02-11T05:00:49.953Z,5.23
2019-02-11T05:06:55.787Z,5.19
2019-02-11T05:13:01.518Z,5.21
2019-02-11T05:19:07.239Z,5.24
2019-02-11T05:25:13.265Z,5.27
2019-02-11T05:31:19.380Z,5.28
2019-02-11T05:37:25.235Z,5.25
2019-02-11T05:43:31.168Z,5.31
2019-02-11T05:49:37.099Z,5.39
2019-02-11T05:55:42.889Z,5.43
2019-02-11T06:01:49.063Z,5.44
2019-02-11T06:07:55.110Z,5.51
2019-02-11T06:14:00.969Z,5.46
2019-02-11T06:20:07.715Z,5.51
2019-02-11T06:26:13.507Z,5.49
2019-02-11T06:32:19.727Z,5.45
2019-02-11T06:38:25.621Z,5.33
2019-02-11T06:44:31.625Z,5.36
2019-02-11T06:50:37.806Z,5.34
2019-02-11T06:56:43.665Z,5.36
2019-02-11T07:02:49.553Z,5.36
2019-02-11T07:08:55.538Z,5.35
2019-02-11T07:15:01.355Z,5.32
2019-02-11T07:21:07.342Z,5.24
2019-02-11T07:27:13.459Z,5.12
2019-02-11T07:33:19.531Z,4.97
2019-02-11T07:39:31.428Z,5.03
2019-02-11T07:45:42.770Z,5.16
2019-02-11T07:51:48.752Z,5.30
2019-02-11T07:57:55.008Z,5.33
2019-02-11T08:04:00.757Z,5.31
2019-02-11T08:10:07.315Z,5.39
2019-02-11T08:16:13.032Z,5.51
2019-02-11T08:22:18.873Z,5.53
2019-02-11T08:28:24.925Z,5.46
2019-02-11T08:34:30.867Z,5.60
2019-02-11T08:40:36.884Z,5.76
2019-02-11T08:46:43.007Z,5.92
2019-02-11T08:52:49.704Z,5.93
2019-02-11T08:58:55.582Z,5.95
2019-02-11T09:05:01.642Z,5.76
2019-02-11T09:11:07.591Z,5.78
2019-02-11T09:17:32.432Z,5.95
2019-02-11T09:23:38.516Z,6.18
2019-02-11T09:29:44.355Z,6.35
2019-02-11T09:35:51.147Z,6.48
2019-02-11T09:41:57.070Z,6.50
2019-02-11T09:48:02.857Z,6.46
2019-02-11T09:54:08.863Z,6.52
2019-02-11T10:00:14.829Z,6.77
2019-02-11T10:06:20.746Z,6.97
2019-02-11T10:12:26.789Z,7.29
2019-02-11T10:18:32.667Z,7.38
2019-02-11T10:24:38.546Z,7.46
2019-02-11T10:30:44.548Z,7.63
2019-02-11T10:36:50.424Z,7.51
2019-02-11T10:42:56.411Z,7.29
2019-02-11T10:49:02.365Z,7.19
2019-02-11T10:55:10.892Z,7.09
2019-02-11T11:01:16.686Z,6.90
2019-02-11T11:07:22.665Z,6.85
2019-02-11T11:13:28.853Z,6.90
2019-02-11T11:19:34.790Z,6.94
2019-02-11T11:25:40.994Z,6.95
2019-02-11T11:31:47.251Z,7.05
2019-02-11T11:37:53.211Z,6.98
2019-02-11T11:43:59.339Z,6.92
2019-02-11T11:50:05.758Z,7.16
2019-02-11T11:56:11.511Z,7.14
2019-02-11T12:02:17.647Z,7.19
2019-02-11T12:08:23.634Z,7.24
2019-02-11T12:14:30.853Z,7.42
2019-02-11T12:20:37.212Z,7.74
2019-02-11T12:26:43.308Z,8.15
2019-02-11T12:32:49.358Z,8.43
2019-02-11T12:38:56.945Z,8.76
2019-02-11T12:45:03.295Z,8.84
2019-02-11T12:51:09.155Z,8.01
2019-02-11T12:57:15.034Z,7.13
2019-02-11T13:03:21.017Z,6.61
2019-02-11T13:09:27.011Z,6.49
2019-02-11T13:15:57.408Z,6.83
2019-02-11T13:21:41.076Z,7.01
2019-02-11T13:27:47.088Z,7.06
2019-02-11T13:33:52.903Z,7.10
2019-02-11T13:39:58.870Z,6.89
2019-02-11T13:46:05.114Z,6.76
2019-02-11T13:52:11.173Z,6.83
2019-02-11T13:58:17.126Z,6.79
2019-02-11T14:04:22.925Z,6.64
2019-02-11T14:10:28.872Z,6.71
2019-02-11T14:16:34.581Z,6.84
2019-02-11T14:22:40.450Z,6.96
2019-02-11T14:28:49.502Z,7.13
2019-02-11T14:34:53.896Z,7.24
2019-02-11T14:40:59.937Z,7.37
2019-02-11T14:47:05.993Z,7.43
2019-02-11T14:53:11.943Z,7.48
2019-02-11T14:59:17.981Z,7.46
2019-02-11T15:05:23.791Z,7.42
2019-02-11T15:11:29.707Z,7.48
2019-02-11T15:17:35.708Z,7.52
2019-02-11T15:23:41.480Z,7.44
2019-02-11T15:29:47.358Z,7.43
2019-02-11T15:35:53.638Z,7.48
2019-02-11T15:41:59.434Z,7.60
2019-02-11T15:48:05.332Z,7.66
2019-02-11T15:54:11.068Z,7.57
2019-02-11T16:00:19.478Z,7.57
2019-02-11T16:06:25.286Z,7.52
2019-02-11T16:12:31.037Z,7.46
2019-02-11T16:18:36.851Z,7.44
2019-02-11T16:24:42.743Z,7.40
2019-02-11T16:30:48.690Z,7.36
2019-02-11T16:36:55.279Z,7.28
2019-02-11T16:43:01.126Z,7.17
2019-02-11T16:49:07.174Z,7.09
2019-02-11T16:55:13.081Z,7.07
2019-02-11T17:01:19.123Z,7.16
2019-02-11T17:07:24.900Z,7.18
2019-02-11T17:13:30.696Z,7.24
2019-02-11T17:19:36.525Z,7.29
2019-02-11T17:25:42.369Z,6.87
2019-02-11T17:31:48.255Z,6.58
2019-02-11T17:37:54.134Z,6.47
2019-02-11T17:43:59.893Z,6.44
2019-02-11T17:50:05.987Z,6.48
2019-02-11T17:56:11.942Z,6.43
2019-02-11T18:02:18.039Z,6.37
2019-02-11T18:08:23.918Z,6.30
2019-02-11T18:14:29.639Z,6.32
2019-02-11T18:20:35.600Z,6.27
2019-02-11T18:26:45.410Z,6.15
2019-02-11T18:32:51.217Z,6.05
2019-02-11T18:38:57.090Z,5.89
2019-02-11T18:45:02.872Z,5.79
2019-02-11T18:51:08.802Z,5.72
2019-02-11T18:57:14.727Z,5.65
2019-02-11T19:03:20.719Z,5.60
2019-02-11T19:09:26.615Z,5.53
2019-02-11T19:15:32.435Z,5.44
2019-02-11T19:21:38.276Z,5.37
2019-02-11T19:27:44.376Z,5.32
2019-02-11T19:33:50.479Z,5.26
2019-02-11T19:39:56.310Z,5.14
2019-02-11T19:46:02.548Z,5.07
2019-02-11T19:52:08.749Z,5.06
2019-02-11T19:58:14.469Z,5.14
2019-02-11T20:04:20.401Z,5.21
2019-02-11T20:10:26.521Z,5.17
2019-02-11T20:16:32.308Z,5.16
2019-02-11T20:22:38.436Z,5.25
2019-02-11T20:28:44.273Z,5.39
2019-02-11T20:34:50.563Z,5.46
2019-02-11T20:40:56.466Z,5.46
2019-02-11T20:47:02.338Z,5.47
2019-02-11T20:53:08.239Z,5.45
2019-02-11T20:59:14.110Z,5.51
2019-02-11T21:05:22.900Z,5.53
2019-02-11T21:11:29.551Z,5.37
2019-02-11T21:17:35.499Z,5.15
2019-02-11T21:23:41.784Z,4.99
2019-02-11T21:29:47.568Z,4.87
2019-02-11T21:35:53.467Z,4.88
2019-02-11T21:42:01.161Z,4.93
2019-02-11T21:48:07.304Z,4.96
2019-02-11T21:54:13.261Z,5.00
2019-02-11T22:00:20.305Z,5.14
2019-02-11T22:06:26.688Z,5.26
2019-02-11T22:12:32.589Z,5.35
2019-02-11T22:18:38.886Z,5.42
2019-02-11T22:24:44.879Z,5.40
2019-02-11T22:30:50.734Z,5.45
2019-02-11T22:36:57.023Z,5.38
2019-02-11T22:43:03.055Z,5.28
2019-02-11T22:49:08.994Z,5.11
2019-02-11T22:55:15.358Z,4.98
2019-02-11T23:01:22.124Z,5.04
2019-02-11T23:07:28.980Z,5.06
2019-02-11T23:13:35.177Z,5.09
2019-02-11T23:19:40.931Z,5.14
2019-02-11T23:25:46.869Z,4.97
2019-02-11T23:31:52.808Z,4.85
2019-02-11T23:37:59.059Z,4.69
2019-02-11T23:44:04.994Z,4.59
2019-02-11T23:50:11.011Z,4.52
2019-02-11T23:56:17.009Z,4.48
